Date,TemperatureHighF,TemperatureAvgF,TemperatureLowF,DewpointHighF,DewpointAvgF,DewpointLowF,HumidityHigh,HumidityAvg,HumidityLow,PressureMaxIn,PressureMinIn,WindSpeedMaxMPH,WindSpeedAvgMPH,GustSpeedMaxMPH,PrecipitationSumIn
2013-2-1,46.4,46.4,46.4,46.1,46.1,46.1,99,99,99,28.09,28.09,2,2,2,0.00
2013-2-2,53.8,46.1,38.7,46.1,40.0,30.7,99,82,44,28.77,28.09,10,3,10,0.01
2013-2-3,55.9,43.4,34.5,31.5,27.6,22.3,77,56,31,28.84,28.54,9,4,9,0.00
2013-2-4,61.7,48.8,36.3,48.1,38.4,27.9,90,68,47,28.54,28.40,17,5,18,0.29
2013-2-5,65.8,45.5,28.8,51.6,35.4,28.6,99,73,33,28.63,28.49,9,2,9,0.00
2013-2-6,39.0,37.3,34.7,34.4,33.4,31.9,91,86,83,28.66,28.62,5,0,5,0.00
2013-2-7,37.6,37.6,37.6,33.5,33.5,33.5,85,85,85,28.66,28.66,0,0,0,0.00
2013-2-8,37.6,37.6,37.6,33.5,33.5,33.5,85,85,85,28.66,28.66,0,0,0,0.00
2013-2-9,50.7,40.9,37.6,42.1,35.7,30.4,99,83,51,28.66,28.41,10,2,10,0.16
2013-2-10,61.2,51.8,40.8,54.4,39.9,27.9,99,69,33,28.60,28.22,19,7,19,0.41
2013-2-11,41.2,39.8,31.8,28.4,27.8,23.9,81,62,51,28.71,28.60,5,4,5,0.00
2013-2-12,33.6,29.2,28.6,28.7,25.9,25.4,91,87,77,28.70,28.63,3,1,3,0.00
2013-2-13,28.8,28.8,28.8,25.7,25.7,25.7,88,88,88,28.63,28.63,2,2,2,0.00
2013-2-14,28.8,28.8,28.8,25.7,25.7,25.7,88,88,88,28.63,28.63,2,2,2,0.00
2013-2-15,28.8,28.8,28.8,25.7,25.7,25.7,88,88,88,28.63,28.63,2,2,2,0.00
2013-2-16,28.8,28.8,28.8,25.7,25.7,25.7,88,88,88,28.63,28.63,2,2,2,0.00
2013-2-17,62.4,39.4,28.8,58.8,27.8,25.7,88,71,32,28.63,28.45,13,4,13,0.00
2013-2-18,62.4,57.4,33.6,34.7,31.8,14.3,78,41,32,28.66,28.45,17,9,17,0.00
2013-2-19,46.8,35.3,24.4,27.2,21.8,17.2,79,59,42,28.86,28.66,15,4,15,0.00
2013-2-20,35.6,31.0,26.1,31.5,23.1,14.2,93,73,53,28.85,28.63,8,3,8,0.10
2013-2-21,31.5,31.5,31.5,26.0,26.0,26.0,80,80,80,28.64,28.64,3,3,3,0.00
2013-2-22,31.5,31.5,31.5,26.0,26.0,26.0,80,80,80,28.64,28.64,3,3,3,0.00
2013-2-23,31.5,31.5,31.5,26.0,26.0,26.0,80,80,80,28.64,28.64,3,3,3,0.00
2013-2-24,59.9,36.9,31.5,35.3,28.4,26.0,80,73,40,28.64,28.40,9,3,9,0.03
2013-2-25,40.1,40.1,40.1,32.5,32.5,32.5,74,74,74,28.43,28.43,5,5,5,0.00
2013-2-26,40.1,40.1,40.1,32.5,32.5,32.5,74,74,74,28.43,28.43,5,5,5,0.00
2013-2-27,40.1,40.1,40.1,32.5,32.5,32.5,74,74,74,28.43,28.43,5,5,5,0.00
2013-2-28,40.1,40.1,40.1,32.5,32.5,32.5,74,74,74,28.43,28.43,5,5,5,0.00